sensor_id;sensor_type;location;lat;lon;timestamp;pressure;altitude;pressure_sealevel;temperature;humidity
21838;BME280;11081;45.946;6.140;2023-04-26T00:00:51;95068.25;;;9.88;63.49
21838;BME280;11081;45.946;6.140;2023-04-26T00:03:21;95076.66;;;9.90;63.67
21838;BME280;11081;45.946;6.140;2023-04-26T00:05:49;95073.47;;;9.88;64.22
21838;BME280;11081;45.946;6.140;2023-04-26T00:08:17;95073.91;;;9.85;63.74
21838;BME280;11081;45.946;6.140;2023-04-26T00:10:45;95069.84;;;9.89;64.69
21838;BME280;11081;45.946;6.140;2023-04-26T00:13:14;95073.47;;;9.88;63.86
21838;BME280;11081;45.946;6.140;2023-04-26T00:15:42;95069.72;;;9.84;63.86
21838;BME280;11081;45.946;6.140;2023-04-26T00:18:10;95066.53;;;9.82;63.90
21838;BME280;11081;45.946;6.140;2023-04-26T00:20:38;95072.31;;;9.84;63.84
21838;BME280;11081;45.946;6.140;2023-04-26T00:23:07;95076.38;;;9.80;63.87
21838;BME280;11081;45.946;6.140;2023-04-26T00:25:36;95085.63;;;9.75;63.58
21838;BME280;11081;45.946;6.140;2023-04-26T00:28:04;95078.25;;;9.72;64.39
21838;BME280;11081;45.946;6.140;2023-04-26T00:30:34;95078.53;;;9.64;64.23
21838;BME280;11081;45.946;6.140;2023-04-26T00:33:08;95080.56;;;9.62;65.08
21838;BME280;11081;45.946;6.140;2023-04-26T00:35:36;95075.78;;;9.59;65.04
21838;BME280;11081;45.946;6.140;2023-04-26T00:38:04;95080.25;;;9.52;64.51
21838;BME280;11081;45.946;6.140;2023-04-26T00:40:33;95074.47;;;9.50;65.20
21838;BME280;11081;45.946;6.140;2023-04-26T00:43:02;95077.06;;;9.50;65.39
21838;BME280;11081;45.946;6.140;2023-04-26T00:45:30;95074.31;;;9.45;65.31
21838;BME280;11081;45.946;6.140;2023-04-26T00:48:00;95074.31;;;9.45;64.72
21838;BME280;11081;45.946;6.140;2023-04-26T00:50:30;95079.88;;;9.48;64.20
21838;BME280;11081;45.946;6.140;2023-04-26T00:52:59;95077.50;;;9.47;65.01
21838;BME280;11081;45.946;6.140;2023-04-26T00:55:29;95069.09;;;9.45;65.36
21838;BME280;11081;45.946;6.140;2023-04-26T00:57:57;95072.28;;;9.47;65.46
21838;BME280;11081;45.946;6.140;2023-04-26T01:00:25;95073.88;;;9.48;64.15
21838;BME280;11081;45.946;6.140;2023-04-26T01:02:56;95069.91;;;9.45;65.40
21838;BME280;11081;45.946;6.140;2023-04-26T01:05:25;95084.72;;;9.45;64.39
21838;BME280;11081;45.946;6.140;2023-04-26T01:07:53;95081.97;;;9.40;64.80
21838;BME280;11081;45.946;6.140;2023-04-26T01:10:23;95082.38;;;9.37;64.70
21838;BME280;11081;45.946;6.140;2023-04-26T01:12:51;95072.56;;;9.39;65.14
21838;BME280;11081;45.946;6.140;2023-04-26T01:15:19;95077.78;;;9.39;64.94
21838;BME280;11081;45.946;6.140;2023-04-26T01:17:48;95076.59;;;9.35;64.83
21838;BME280;11081;45.946;6.140;2023-04-26T01:20:17;95074.00;;;9.35;64.67
21838;BME280;11081;45.946;6.140;2023-04-26T01:22:46;95074.44;;;9.32;65.24
21838;BME280;11081;45.946;6.140;2023-04-26T01:25:15;95079.63;;;9.32;64.79
21838;BME280;11081;45.946;6.140;2023-04-26T01:27:43;95090.47;;;9.29;65.01
21838;BME280;11081;45.946;6.140;2023-04-26T01:30:11;95093.72;;;9.24;64.18
21838;BME280;11081;45.946;6.140;2023-04-26T01:32:39;95094.63;;;9.11;64.90
21838;BME280;11081;45.946;6.140;2023-04-26T01:35:08;95093.59;;;8.88;65.29
21838;BME280;11081;45.946;6.140;2023-04-26T01:37:35;95092.38;;;8.90;65.27
21838;BME280;11081;45.946;6.140;2023-04-26T01:40:06;95080.72;;;8.99;65.22
21838;BME280;11081;45.946;6.140;2023-04-26T01:42:36;95086.72;;;9.00;64.70
21838;BME280;11081;45.946;6.140;2023-04-26T01:45:04;95085.94;;;8.99;64.18
21838;BME280;11081;45.946;6.140;2023-04-26T01:47:51;95093.16;;;8.97;65.16
21838;BME280;11081;45.946;6.140;2023-04-26T01:50:19;95087.16;;;8.97;64.71
21838;BME280;11081;45.946;6.140;2023-04-26T01:52:47;95076.13;;;8.95;64.60
21838;BME280;11081;45.946;6.140;2023-04-26T01:55:19;95074.31;;;8.95;64.40
21838;BME280;11081;45.946;6.140;2023-04-26T01:57:47;95075.50;;;8.99;64.68
21838;BME280;11081;45.946;6.140;2023-04-26T02:00:15;95073.94;;;8.98;64.15
21838;BME280;11081;45.946;6.140;2023-04-26T02:02:47;95089.94;;;8.95;65.01
21838;BME280;11081;45.946;6.140;2023-04-26T02:05:15;95085.59;;;8.89;64.84
21838;BME280;11081;45.946;6.140;2023-04-26T02:07:44;95079.66;;;8.82;64.72
21838;BME280;11081;45.946;6.140;2023-04-26T02:10:12;95072.00;;;8.87;64.82
21838;BME280;11081;45.946;6.140;2023-04-26T02:12:41;95067.94;;;8.91;65.23
21838;BME280;11081;45.946;6.140;2023-04-26T02:15:10;95075.59;;;8.86;65.43
21838;BME280;11081;45.946;6.140;2023-04-26T02:17:38;95080.88;;;8.73;66.05
21838;BME280;11081;45.946;6.140;2023-04-26T02:20:07;95073.34;;;8.65;65.77
21838;BME280;11081;45.946;6.140;2023-04-26T02:22:36;95075.00;;;8.59;66.08
21838;BME280;11081;45.946;6.140;2023-04-26T02:25:05;95078.97;;;8.62;66.21
21838;BME280;11081;45.946;6.140;2023-04-26T02:27:33;95081.75;;;8.67;66.10
21838;BME280;11081;45.946;6.140;2023-04-26T02:30:04;95079.72;;;8.69;65.75
21838;BME280;11081;45.946;6.140;2023-04-26T02:32:33;95065.91;;;8.68;65.52
21838;BME280;11081;45.946;6.140;2023-04-26T02:35:01;95058.91;;;8.69;65.86
21838;BME280;11081;45.946;6.140;2023-04-26T02:37:29;95062.69;;;8.73;65.28
21838;BME280;11081;45.946;6.140;2023-04-26T02:39:57;95054.06;;;8.72;64.95
21838;BME280;11081;45.946;6.140;2023-04-26T02:42:25;95053.88;;;8.74;65.56
21838;BME280;11081;45.946;6.140;2023-04-26T02:44:53;95060.88;;;8.73;65.58
21838;BME280;11081;45.946;6.140;2023-04-26T02:47:24;95066.25;;;8.78;64.77
21838;BME280;11081;45.946;6.140;2023-04-26T02:49:52;95066.03;;;8.80;65.21
21838;BME280;11081;45.946;6.140;2023-04-26T02:52:20;95062.88;;;8.78;65.10
21838;BME280;11081;45.946;6.140;2023-04-26T02:54:48;95050.06;;;8.76;65.07
21838;BME280;11081;45.946;6.140;2023-04-26T02:57:16;95056.47;;;8.74;65.36
21838;BME280;11081;45.946;6.140;2023-04-26T02:59:44;95059.34;;;8.34;65.98
21838;BME280;11081;45.946;6.140;2023-04-26T03:02:12;95052.75;;;8.25;66.38
21838;BME280;11081;45.946;6.140;2023-04-26T03:04:42;95053.47;;;8.45;65.74
21838;BME280;11081;45.946;6.140;2023-04-26T03:07:10;95051.03;;;8.50;65.86
21838;BME280;11081;45.946;6.140;2023-04-26T03:09:38;95055.41;;;8.57;65.48
21838;BME280;11081;45.946;6.140;2023-04-26T03:12:06;95054.63;;;8.49;65.78
21838;BME280;11081;45.946;6.140;2023-04-26T03:14:35;95058.25;;;8.48;65.67
21838;BME280;11081;45.946;6.140;2023-04-26T03:17:04;95057.06;;;8.44;65.83
21838;BME280;11081;45.946;6.140;2023-04-26T03:19:32;95052.72;;;8.38;66.36
21838;BME280;11081;45.946;6.140;2023-04-26T03:22:04;95064.34;;;8.36;66.62
21838;BME280;11081;45.946;6.140;2023-04-26T03:24:32;95064.53;;;8.34;66.67
21838;BME280;11081;45.946;6.140;2023-04-26T03:27:00;95053.31;;;8.40;66.44
21838;BME280;11081;45.946;6.140;2023-04-26T03:29:28;95053.88;;;8.42;66.07
21838;BME280;11081;45.946;6.140;2023-04-26T03:31:56;95059.09;;;8.42;66.37
21838;BME280;11081;45.946;6.140;2023-04-26T03:34:24;95047.88;;;8.42;65.90
21838;BME280;11081;45.946;6.140;2023-04-26T03:36:53;95048.31;;;8.39;66.25
21838;BME280;11081;45.946;6.140;2023-04-26T03:39:22;95050.69;;;8.40;65.92
21838;BME280;11081;45.946;6.140;2023-04-26T03:41:51;95051.91;;;8.38;66.63
21838;BME280;11081;45.946;6.140;2023-04-26T03:44:19;95059.50;;;8.39;66.67
21838;BME280;11081;45.946;6.140;2023-04-26T03:46:47;95063.53;;;8.35;66.66
21838;BME280;11081;45.946;6.140;2023-04-26T03:49:15;95062.91;;;8.33;67.07
21838;BME280;11081;45.946;6.140;2023-04-26T03:51:43;95055.50;;;8.30;66.96
21838;BME280;11081;45.946;6.140;2023-04-26T03:54:14;95053.34;;;8.27;67.27
21838;BME280;11081;45.946;6.140;2023-04-26T03:56:43;95059.53;;;8.26;66.73
21838;BME280;11081;45.946;6.140;2023-04-26T03:59:11;95061.56;;;8.24;67.51
21838;BME280;11081;45.946;6.140;2023-04-26T04:01:39;95060.38;;;8.20;67.35
21838;BME280;11081;45.946;6.140;2023-04-26T04:04:08;95056.00;;;8.14;67.46
21838;BME280;11081;45.946;6.140;2023-04-26T04:06:38;95053.41;;;8.14;67.39
21838;BME280;11081;45.946;6.140;2023-04-26T04:09:06;95057.59;;;8.15;67.86
21838;BME280;11081;45.946;6.140;2023-04-26T04:11:34;95051.22;;;8.11;67.69
21838;BME280;11081;45.946;6.140;2023-04-26T04:14:04;95043.22;;;8.12;67.58
21838;BME280;11081;45.946;6.140;2023-04-26T04:16:33;95052.81;;;8.12;67.66
21838;BME280;11081;45.946;6.140;2023-04-26T04:19:01;95053.22;;;8.09;67.69
21838;BME280;11081;45.946;6.140;2023-04-26T04:21:29;95053.22;;;8.09;67.74
21838;BME280;11081;45.946;6.140;2023-04-26T04:23:57;95052.03;;;8.05;67.72
21838;BME280;11081;45.946;6.140;2023-04-26T04:26:26;95054.47;;;8.00;68.04
21838;BME280;11081;45.946;6.140;2023-04-26T04:28:54;95050.88;;;8.01;68.32
21838;BME280;11081;45.946;6.140;2023-04-26T04:31:24;95048.84;;;8.03;68.27
21838;BME280;11081;45.946;6.140;2023-04-26T04:33:52;95050.06;;;8.00;68.43
21838;BME280;11081;45.946;6.140;2023-04-26T04:36:20;95050.88;;;8.01;68.13
21838;BME280;11081;45.946;6.140;2023-04-26T04:38:49;95056.66;;;8.03;68.34
21838;BME280;11081;45.946;6.140;2023-04-26T04:41:21;95058.47;;;8.02;68.51
21838;BME280;11081;45.946;6.140;2023-04-26T04:43:49;95050.88;;;8.01;68.60
21838;BME280;11081;45.946;6.140;2023-04-26T04:46:19;95059.25;;;8.03;68.85
21838;BME280;11081;45.946;6.140;2023-04-26T04:48:48;95055.66;;;8.04;69.01
21838;BME280;11081;45.946;6.140;2023-04-26T04:51:17;95057.25;;;8.05;69.07
21838;BME280;11081;45.946;6.140;2023-04-26T04:53:45;95064.03;;;8.06;69.43
21838;BME280;11081;45.946;6.140;2023-04-26T04:56:13;95067.28;;;7.94;69.88
21838;BME280;11081;45.946;6.140;2023-04-26T04:58:44;95070.16;;;7.67;70.69
21838;BME280;11081;45.946;6.140;2023-04-26T05:01:16;95071.78;;;7.61;71.27
21838;BME280;11081;45.946;6.140;2023-04-26T05:03:50;95072.97;;;7.65;71.04
21838;BME280;11081;45.946;6.140;2023-04-26T05:06:19;95069.75;;;7.76;70.81
21838;BME280;11081;45.946;6.140;2023-04-26T05:08:47;95082.91;;;7.81;70.52
21838;BME280;11081;45.946;6.140;2023-04-26T05:11:15;95080.09;;;7.89;70.45
21838;BME280;11081;45.946;6.140;2023-04-26T05:13:44;95084.88;;;7.92;70.37
21838;BME280;11081;45.946;6.140;2023-04-26T05:16:13;95086.50;;;7.93;70.34
21838;BME280;11081;45.946;6.140;2023-04-26T05:18:41;95093.28;;;7.94;70.19
21838;BME280;11081;45.946;6.140;2023-04-26T05:21:10;95100.06;;;7.95;70.11
21838;BME280;11081;45.946;6.140;2023-04-26T05:23:39;95094.47;;;7.99;70.46
21838;BME280;11081;45.946;6.140;2023-04-26T05:26:09;95102.47;;;7.97;70.13
21838;BME280;11081;45.946;6.140;2023-04-26T05:28:58;95106.66;;;7.98;70.31
21838;BME280;11081;45.946;6.140;2023-04-26T05:31:44;95116.44;;;8.03;70.36
21838;BME280;11081;45.946;6.140;2023-04-26T05:34:31;95109.00;;;8.06;70.62
21838;BME280;11081;45.946;6.140;2023-04-26T05:37:01;95112.41;;;8.13;70.46
21838;BME280;11081;45.946;6.140;2023-04-26T05:39:29;95108.00;;;8.14;70.73
21838;BME280;11081;45.946;6.140;2023-04-26T05:41:57;95117.56;;;8.20;70.79
21838;BME280;11081;45.946;6.140;2023-04-26T05:44:25;95111.13;;;8.29;70.59
21838;BME280;11081;45.946;6.140;2023-04-26T05:46:54;95114.53;;;8.36;70.44
21838;BME280;11081;45.946;6.140;2023-04-26T05:49:24;95123.88;;;8.44;70.23
21838;BME280;11081;45.946;6.140;2023-04-26T05:51:52;95124.25;;;8.47;69.82
21838;BME280;11081;45.946;6.140;2023-04-26T05:54:22;95128.22;;;8.57;69.22
21838;BME280;11081;45.946;6.140;2023-04-26T05:56:51;95132.59;;;8.63;69.38
21838;BME280;11081;45.946;6.140;2023-04-26T05:59:19;95124.97;;;8.68;69.43
21838;BME280;11081;45.946;6.140;2023-04-26T06:01:47;95130.53;;;8.71;69.79
21838;BME280;11081;45.946;6.140;2023-04-26T06:04:15;95138.75;;;8.75;69.08
21838;BME280;11081;45.946;6.140;2023-04-26T06:06:55;95129.66;;;8.84;69.47
21838;BME280;11081;45.946;6.140;2023-04-26T06:09:25;95127.22;;;8.89;68.76
21838;BME280;11081;45.946;6.140;2023-04-26T06:11:53;95125.97;;;8.98;68.32
21838;BME280;11081;45.946;6.140;2023-04-26T06:14:21;95116.31;;;9.05;67.88
21838;BME280;11081;45.946;6.140;2023-04-26T06:16:55;95117.47;;;9.09;68.40
21838;BME280;11081;45.946;6.140;2023-04-26T06:19:23;95123.53;;;9.03;68.09
21838;BME280;11081;45.946;6.140;2023-04-26T06:21:51;95124.97;;;8.99;69.09
21838;BME280;11081;45.946;6.140;2023-04-26T06:24:22;95119.91;;;9.04;68.55
21838;BME280;11081;45.946;6.140;2023-04-26T06:26:51;95118.13;;;9.05;68.25
21838;BME280;11081;45.946;6.140;2023-04-26T06:29:19;95119.44;;;9.14;67.73
21838;BME280;11081;45.946;6.140;2023-04-26T06:31:48;95112.53;;;9.26;66.97
21838;BME280;11081;45.946;6.140;2023-04-26T06:34:18;95112.47;;;9.33;66.88
21838;BME280;11081;45.946;6.140;2023-04-26T06:36:46;95116.84;;;9.39;66.76
21838;BME280;11081;45.946;6.140;2023-04-26T06:39:15;95113.81;;;9.42;67.25
21838;BME280;11081;45.946;6.140;2023-04-26T06:41:44;95116.13;;;9.50;65.95
21838;BME280;11081;45.946;6.140;2023-04-26T06:44:22;95118.75;;;9.50;66.46
21838;BME280;11081;45.946;6.140;2023-04-26T06:46:52;95120.19;;;9.46;67.27
21838;BME280;11081;45.946;6.140;2023-04-26T06:49:21;95125.53;;;9.51;66.89
21838;BME280;11081;45.946;6.140;2023-04-26T06:51:49;95126.44;;;9.63;66.73
21838;BME280;11081;45.946;6.140;2023-04-26T06:54:18;95122.69;;;9.77;65.94
21838;BME280;11081;45.946;6.140;2023-04-26T06:56:46;95115.75;;;9.90;66.01
21838;BME280;11081;45.946;6.140;2023-04-26T06:59:14;95105.81;;;9.98;65.51
21838;BME280;11081;45.946;6.140;2023-04-26T07:01:43;95104.88;;;10.11;65.63
21838;BME280;11081;45.946;6.140;2023-04-26T07:04:11;95116.78;;;10.25;65.31
21838;BME280;11081;45.946;6.140;2023-04-26T07:06:41;95112.84;;;10.34;64.20
21838;BME280;11081;45.946;6.140;2023-04-26T07:09:09;95105.78;;;10.42;64.63
21838;BME280;11081;45.946;6.140;2023-04-26T07:11:37;95104.66;;;10.49;63.71
21838;BME280;11081;45.946;6.140;2023-04-26T07:14:05;95105.13;;;10.58;63.95
21838;BME280;11081;45.946;6.140;2023-04-26T07:16:33;95100.19;;;10.68;63.57
21838;BME280;11081;45.946;6.140;2023-04-26T07:19:03;95100.63;;;10.65;63.38
21838;BME280;11081;45.946;6.140;2023-04-26T07:21:32;95091.13;;;10.71;62.93
21838;BME280;11081;45.946;6.140;2023-04-26T07:24:00;95101.16;;;10.85;62.64
21838;BME280;11081;45.946;6.140;2023-04-26T07:26:28;95082.53;;;10.93;63.77
21838;BME280;11081;45.946;6.140;2023-04-26T07:28:57;95096.28;;;10.89;63.77
21838;BME280;11081;45.946;6.140;2023-04-26T07:31:26;95096.63;;;10.92;63.15
21838;BME280;11081;45.946;6.140;2023-04-26T07:33:54;95089.69;;;10.86;63.09
21838;BME280;11081;45.946;6.140;2023-04-26T07:36:24;95086.63;;;11.01;63.44
21838;BME280;11081;45.946;6.140;2023-04-26T07:38:53;95087.44;;;11.02;62.72
21838;BME280;11081;45.946;6.140;2023-04-26T07:41:23;95090.53;;;10.38;64.97
21838;BME280;11081;45.946;6.140;2023-04-26T07:43:51;95083.28;;;10.41;65.47
21838;BME280;11081;45.946;6.140;2023-04-26T07:46:19;95085.59;;;10.49;64.46
21838;BME280;11081;45.946;6.140;2023-04-26T07:48:47;95080.22;;;10.62;63.68
21838;BME280;11081;45.946;6.140;2023-04-26T07:51:15;95084.06;;;10.71;62.91
21838;BME280;11081;45.946;6.140;2023-04-26T07:53:45;95077.78;;;10.90;62.18
21838;BME280;11081;45.946;6.140;2023-04-26T07:56:12;95074.63;;;11.12;61.88
21838;BME280;11081;45.946;6.140;2023-04-26T07:58:41;95072.13;;;11.17;61.55
21838;BME280;11081;45.946;6.140;2023-04-26T08:01:09;95076.44;;;11.23;61.47
21838;BME280;11081;45.946;6.140;2023-04-26T08:03:37;95077.38;;;11.40;61.11
21838;BME280;11081;45.946;6.140;2023-04-26T08:06:06;95069.19;;;11.48;60.46
21838;BME280;11081;45.946;6.140;2023-04-26T08:08:34;95084.44;;;11.51;60.76
21838;BME280;11081;45.946;6.140;2023-04-26T08:11:10;95082.59;;;11.40;61.91
21838;BME280;11081;45.946;6.140;2023-04-26T08:13:38;95083.72;;;11.21;62.38
21838;BME280;11081;45.946;6.140;2023-04-26T08:16:06;95079.88;;;11.35;61.43
21838;BME280;11081;45.946;6.140;2023-04-26T08:18:34;95080.13;;;11.45;61.17
21838;BME280;11081;45.946;6.140;2023-04-26T08:21:02;95074.63;;;11.58;60.10
21838;BME280;11081;45.946;6.140;2023-04-26T08:23:32;95078.28;;;11.81;63.35
21838;BME280;11081;45.946;6.140;2023-04-26T08:26:01;95076.41;;;12.16;61.90
21838;BME280;11081;45.946;6.140;2023-04-26T08:28:31;95087.13;;;12.03;61.37
21838;BME280;11081;45.946;6.140;2023-04-26T08:30:58;95071.69;;;11.67;61.90
21838;BME280;11081;45.946;6.140;2023-04-26T08:33:26;95074.88;;;11.69;60.75
21838;BME280;11081;45.946;6.140;2023-04-26T08:35:54;95073.38;;;11.84;61.12
21838;BME280;11081;45.946;6.140;2023-04-26T08:38:23;95073.50;;;11.78;61.38
21838;BME280;11081;45.946;6.140;2023-04-26T08:40:51;95074.06;;;11.80;60.04
21838;BME280;11081;45.946;6.140;2023-04-26T08:43:19;95082.16;;;11.90;59.34
21838;BME280;11081;45.946;6.140;2023-04-26T08:45:49;95087.25;;;11.97;59.49
21838;BME280;11081;45.946;6.140;2023-04-26T08:48:18;95076.66;;;12.03;59.11
21838;BME280;11081;45.946;6.140;2023-04-26T08:50:47;95083.50;;;11.81;61.19
21838;BME280;11081;45.946;6.140;2023-04-26T08:53:16;95087.16;;;11.56;60.66
21838;BME280;11081;45.946;6.140;2023-04-26T08:55:47;95087.72;;;11.47;61.38
21838;BME280;11081;45.946;6.140;2023-04-26T08:58:16;95085.75;;;11.66;60.81
21838;BME280;11081;45.946;6.140;2023-04-26T09:00:44;95086.00;;;11.76;62.01
21838;BME280;11081;45.946;6.140;2023-04-26T09:03:14;95094.19;;;11.91;60.81
21838;BME280;11081;45.946;6.140;2023-04-26T09:05:42;95089.06;;;11.84;60.95
21838;BME280;11081;45.946;6.140;2023-04-26T09:08:13;95097.47;;;11.86;61.14
21838;BME280;11081;45.946;6.140;2023-04-26T09:10:43;95095.31;;;11.72;59.62
21838;BME280;11081;45.946;6.140;2023-04-26T09:13:11;95085.78;;;11.89;59.90
21838;BME280;11081;45.946;6.140;2023-04-26T09:15:40;95086.00;;;11.99;59.19
21838;BME280;11081;45.946;6.140;2023-04-26T09:18:20;95094.72;;;12.16;58.82
21838;BME280;11081;45.946;6.140;2023-04-26T09:21:01;95096.94;;;12.36;59.07
21838;BME280;11081;45.946;6.140;2023-04-26T09:23:29;95093.75;;;12.63;58.59
21838;BME280;11081;45.946;6.140;2023-04-26T09:26:16;95089.91;;;12.82;57.85
21838;BME280;11081;45.946;6.140;2023-04-26T09:28:44;95088.72;;;12.90;57.99
21838;BME280;11081;45.946;6.140;2023-04-26T09:31:34;95087.53;;;12.80;54.40
21838;BME280;11081;45.946;6.140;2023-04-26T09:34:04;95084.63;;;12.65;56.20
21838;BME280;11081;45.946;6.140;2023-04-26T09:36:32;95084.00;;;12.58;57.00
21838;BME280;11081;45.946;6.140;2023-04-26T09:39:00;95083.72;;;12.71;56.22
21838;BME280;11081;45.946;6.140;2023-04-26T09:41:41;95082.94;;;12.88;54.46
21838;BME280;11081;45.946;6.140;2023-04-26T09:44:22;95079.16;;;12.95;54.76
21838;BME280;11081;45.946;6.140;2023-04-26T09:47:01;95068.50;;;13.02;54.76
21838;BME280;11081;45.946;6.140;2023-04-26T09:49:32;95084.22;;;13.02;55.01
21838;BME280;11081;45.946;6.140;2023-04-26T09:52:01;95084.78;;;13.04;55.07
21838;BME280;11081;45.946;6.140;2023-04-26T09:54:40;95085.66;;;12.93;55.46
21838;BME280;11081;45.946;6.140;2023-04-26T09:57:09;95072.06;;;12.96;54.91
21838;BME280;11081;45.946;6.140;2023-04-26T09:59:41;95076.16;;;13.20;54.85
21838;BME280;11081;45.946;6.140;2023-04-26T10:02:15;95072.09;;;13.12;55.37
21838;BME280;11081;45.946;6.140;2023-04-26T10:04:46;95065.94;;;12.90;58.95
21838;BME280;11081;45.946;6.140;2023-04-26T10:07:16;95070.50;;;12.66;57.94
21838;BME280;11081;45.946;6.140;2023-04-26T10:09:45;95070.22;;;12.79;58.98
21838;BME280;11081;45.946;6.140;2023-04-26T10:12:15;95060.25;;;13.10;57.11
21838;BME280;11081;45.946;6.140;2023-04-26T10:14:44;95059.00;;;13.29;56.16
21838;BME280;11081;45.946;6.140;2023-04-26T10:17:13;95063.69;;;13.44;55.46
21838;BME280;11081;45.946;6.140;2023-04-26T10:19:42;95056.59;;;13.45;55.79
21838;BME280;11081;45.946;6.140;2023-04-26T10:22:16;95054.81;;;13.67;56.31
21838;BME280;11081;45.946;6.140;2023-04-26T10:24:49;95053.50;;;13.86;54.96
21838;BME280;11081;45.946;6.140;2023-04-26T10:27:46;95061.44;;;13.91;52.67
21838;BME280;11081;45.946;6.140;2023-04-26T10:30:14;95046.94;;;13.67;54.16
21838;BME280;11081;45.946;6.140;2023-04-26T10:36:13;95046.72;;;13.68;47.12
21838;BME280;11081;45.946;6.140;2023-04-26T10:39:18;95033.56;;;13.47;50.74
21838;BME280;11081;45.946;6.140;2023-04-26T10:41:47;95030.31;;;13.78;50.76
21838;BME280;11081;45.946;6.140;2023-04-26T10:44:38;95035.56;;;13.78;48.93
21838;BME280;11081;45.946;6.140;2023-04-26T10:47:19;95038.25;;;13.83;50.95
21838;BME280;11081;45.946;6.140;2023-04-26T10:49:48;95024.38;;;14.10;50.12
21838;BME280;11081;45.946;6.140;2023-04-26T10:52:17;95030.69;;;14.09;49.83
21838;BME280;11081;45.946;6.140;2023-04-26T10:54:53;95033.31;;;14.09;51.91
21838;BME280;11081;45.946;6.140;2023-04-26T10:57:22;95036.53;;;14.16;50.94
21838;BME280;11081;45.946;6.140;2023-04-26T11:03:03;95030.06;;;14.45;50.19
21838;BME280;11081;45.946;6.140;2023-04-26T11:05:41;95033.81;;;14.54;48.79
21838;BME280;11081;45.946;6.140;2023-04-26T11:08:16;95028.72;;;14.21;48.81
21838;BME280;11081;45.946;6.140;2023-04-26T11:10:50;95029.56;;;14.48;46.86
21838;BME280;11081;45.946;6.140;2023-04-26T11:13:18;95018.06;;;14.54;47.36
21838;BME280;11081;45.946;6.140;2023-04-26T11:15:51;95025.78;;;14.39;48.62
21838;BME280;11081;45.946;6.140;2023-04-26T11:18:20;95022.50;;;14.27;47.83
21838;BME280;11081;45.946;6.140;2023-04-26T11:20:49;95017.25;;;14.27;46.95
21838;BME280;11081;45.946;6.140;2023-04-26T11:23:17;95011.69;;;14.45;47.24
21838;BME280;11081;45.946;6.140;2023-04-26T11:25:48;95007.25;;;14.51;45.64
21838;BME280;11081;45.946;6.140;2023-04-26T11:28:17;95004.00;;;14.66;46.34
21838;BME280;11081;45.946;6.140;2023-04-26T11:30:45;95006.59;;;14.60;43.17
21838;BME280;11081;45.946;6.140;2023-04-26T11:33:17;95003.63;;;14.30;42.85
21838;BME280;11081;45.946;6.140;2023-04-26T11:35:45;95001.09;;;14.40;43.40
21838;BME280;11081;45.946;6.140;2023-04-26T11:38:14;95001.34;;;14.60;43.04
21838;BME280;11081;45.946;6.140;2023-04-26T11:40:42;94995.75;;;14.84;42.58
21838;BME280;11081;45.946;6.140;2023-04-26T11:43:12;94993.09;;;14.79;42.35
21838;BME280;11081;45.946;6.140;2023-04-26T11:45:41;94992.06;;;14.85;42.49
21838;BME280;11081;45.946;6.140;2023-04-26T11:48:09;94986.38;;;14.98;41.21
21838;BME280;11081;45.946;6.140;2023-04-26T11:50:39;94984.47;;;15.20;42.22
21838;BME280;11081;45.946;6.140;2023-04-26T11:53:07;94987.16;;;15.36;43.02
21838;BME280;11081;45.946;6.140;2023-04-26T11:55:35;94991.28;;;15.21;42.01
21838;BME280;11081;45.946;6.140;2023-04-26T11:58:11;94987.38;;;14.92;40.45
21838;BME280;11081;45.946;6.140;2023-04-26T12:00:56;94984.16;;;14.80;38.23
21838;BME280;11081;45.946;6.140;2023-04-26T12:03:28;94978.41;;;14.83;39.06
21838;BME280;11081;45.946;6.140;2023-04-26T12:05:57;94979.06;;;15.00;40.22
21838;BME280;11081;45.946;6.140;2023-04-26T12:08:25;94981.56;;;15.22;40.28
21838;BME280;11081;45.946;6.140;2023-04-26T12:10:58;94980.81;;;15.32;38.91
21838;BME280;11081;45.946;6.140;2023-04-26T12:13:28;94989.72;;;15.20;39.23
21838;BME280;11081;45.946;6.140;2023-04-26T12:15:57;94991.78;;;15.18;39.89
21838;BME280;11081;45.946;6.140;2023-04-26T12:18:29;94999.06;;;15.06;38.27
21838;BME280;11081;45.946;6.140;2023-04-26T12:20:58;94990.19;;;15.17;39.97
21838;BME280;11081;45.946;6.140;2023-04-26T12:23:34;94989.81;;;15.41;40.38
21838;BME280;11081;45.946;6.140;2023-04-26T12:26:02;94986.19;;;15.47;39.82
21838;BME280;11081;45.946;6.140;2023-04-26T12:28:32;94991.06;;;15.65;39.73
21838;BME280;11081;45.946;6.140;2023-04-26T12:31:00;94993.63;;;15.60;37.58
21838;BME280;11081;45.946;6.140;2023-04-26T12:33:30;94999.50;;;15.77;38.60
21838;BME280;11081;45.946;6.140;2023-04-26T12:36:05;94991.63;;;15.77;40.13
21838;BME280;11081;45.946;6.140;2023-04-26T12:38:33;95000.00;;;15.64;38.38
21838;BME280;11081;45.946;6.140;2023-04-26T12:41:02;95000.97;;;15.58;37.68
21838;BME280;11081;45.946;6.140;2023-04-26T12:43:31;94990.69;;;15.51;38.79
21838;BME280;11081;45.946;6.140;2023-04-26T12:45:59;94993.81;;;15.48;37.09
21838;BME280;11081;45.946;6.140;2023-04-26T12:48:28;94983.69;;;15.67;37.89
21838;BME280;11081;45.946;6.140;2023-04-26T12:50:56;94982.22;;;15.92;37.79
21838;BME280;11081;45.946;6.140;2023-04-26T12:53:24;94994.66;;;16.22;37.67
21838;BME280;11081;45.946;6.140;2023-04-26T12:55:52;94999.47;;;16.40;37.28
21838;BME280;11081;45.946;6.140;2023-04-26T12:58:20;94985.47;;;16.24;38.41
21838;BME280;11081;45.946;6.140;2023-04-26T13:00:49;94981.75;;;16.10;34.89
21838;BME280;11081;45.946;6.140;2023-04-26T13:03:17;94991.28;;;16.26;37.09
21838;BME280;11081;45.946;6.140;2023-04-26T13:05:46;94980.22;;;16.39;36.11
21838;BME280;11081;45.946;6.140;2023-04-26T13:08:13;94984.91;;;16.22;35.25
21838;BME280;11081;45.946;6.140;2023-04-26T13:10:42;94984.44;;;16.25;35.38
21838;BME280;11081;45.946;6.140;2023-04-26T13:13:10;94980.50;;;16.43;35.67
21838;BME280;11081;45.946;6.140;2023-04-26T13:15:38;94986.31;;;16.60;35.98
21838;BME280;11081;45.946;6.140;2023-04-26T13:18:08;94976.34;;;16.72;35.62
21838;BME280;11081;45.946;6.140;2023-04-26T13:20:36;94984.47;;;16.61;35.48
21838;BME280;11081;45.946;6.140;2023-04-26T13:23:04;94984.50;;;16.66;35.21
21838;BME280;11081;45.946;6.140;2023-04-26T13:25:32;94982.44;;;16.88;35.40